createdAt,value
2023-04-16T00:02:53.675Z,85.69
2023-04-16T00:08:01.397Z,85.26
2023-04-16T00:17:00.421Z,85.58
2023-04-16T00:22:04.587Z,85.32
2023-04-16T00:27:09.058Z,85.88
2023-04-16T00:32:13.218Z,85.34
2023-04-16T00:37:17.408Z,85.09
2023-04-16T00:42:21.702Z,84.96
2023-04-16T00:47:27.859Z,84.61
2023-04-16T00:52:32.896Z,85.00
2023-04-16T00:57:37.089Z,84.95
2023-04-16T01:02:41.418Z,84.71
2023-04-16T01:07:45.568Z,84.87
2023-04-16T01:12:49.673Z,84.47
2023-04-16T01:17:54.203Z,84.33
2023-04-16T01:22:58.382Z,84.37
2023-04-16T01:28:02.359Z,84.85
2023-04-16T01:33:06.846Z,85.75
2023-04-16T01:38:11.459Z,86.48
2023-04-16T01:43:15.500Z,87.31
2023-04-16T01:48:19.738Z,87.62
2023-04-16T01:53:24.188Z,86.74
2023-04-16T01:58:30.413Z,86.24
2023-04-16T02:03:34.627Z,86.38
2023-04-16T02:08:39.044Z,87.30
2023-04-16T02:13:43.136Z,86.94
2023-04-16T02:18:47.604Z,87.18
2023-04-16T02:23:52.221Z,87.86
2023-04-16T02:28:57.164Z,89.03
2023-04-16T02:34:01.572Z,89.36
2023-04-16T02:39:05.800Z,88.57
2023-04-16T02:44:10.493Z,87.82
2023-04-16T02:49:15.098Z,88.20
2023-04-16T02:54:19.515Z,88.85
2023-04-16T02:59:23.980Z,88.94
2023-04-16T03:04:29.085Z,89.03
2023-04-16T03:09:33.461Z,89.41
2023-04-16T03:14:37.620Z,89.47
2023-04-16T03:19:42.381Z,89.12
2023-04-16T03:24:46.428Z,88.62
2023-04-16T03:29:51.113Z,87.63
2023-04-16T03:34:55.647Z,87.77
2023-04-16T03:40:00.118Z,87.77
2023-04-16T03:45:08.962Z,88.88
2023-04-16T03:50:13.372Z,89.90
2023-04-16T03:55:18.388Z,90.40
2023-04-16T04:00:22.857Z,89.90
2023-04-16T04:05:27.142Z,89.87
2023-04-16T04:10:32.691Z,89.54
2023-04-16T04:15:36.684Z,89.48
2023-04-16T04:20:41.483Z,89.39
2023-04-16T04:25:46.019Z,88.99
2023-04-16T04:30:50.783Z,89.44
2023-04-16T04:35:55.230Z,90.45
2023-04-16T04:40:59.988Z,90.38
2023-04-16T04:46:04.144Z,90.44
2023-04-16T04:54:44.635Z,90.97
2023-04-16T04:59:52.410Z,91.29
2023-04-16T05:05:00.410Z,91.64
2023-04-16T05:10:10.095Z,91.87
2023-04-16T05:15:18.466Z,91.64
2023-04-16T05:20:26.378Z,91.65
2023-04-16T05:25:33.993Z,91.78
2023-04-16T05:30:41.540Z,91.31
2023-04-16T05:35:49.016Z,91.33
2023-04-16T05:40:57.211Z,90.61
2023-04-16T05:46:05.104Z,90.41
2023-04-16T05:52:55.900Z,90.06
2023-04-16T05:58:04.611Z,89.20
2023-04-16T06:03:12.719Z,88.11
2023-04-16T06:08:20.967Z,86.53
2023-04-16T06:13:28.531Z,86.12
2023-04-16T06:18:35.882Z,84.97
2023-04-16T06:23:43.288Z,84.82
2023-04-16T06:28:51.804Z,84.65
2023-04-16T06:33:59.701Z,84.49
2023-04-16T06:39:07.708Z,84.14
2023-04-16T06:44:16.319Z,84.09
2023-04-16T06:49:24.460Z,83.44
2023-04-16T06:54:34.031Z,83.39
2023-04-16T06:59:42.213Z,83.07
2023-04-16T07:04:49.833Z,83.03
2023-04-16T07:09:57.500Z,83.01
2023-04-16T07:15:06.288Z,82.02
2023-04-16T07:20:15.121Z,81.35
2023-04-16T07:25:23.155Z,80.75
2023-04-16T07:30:34.798Z,79.95
2023-04-16T07:35:42.428Z,79.88
2023-04-16T07:40:50.633Z,79.19
2023-04-16T07:45:58.381Z,77.98
2023-04-16T07:51:06.338Z,77.86
2023-04-16T07:56:14.083Z,77.94
2023-04-16T08:01:21.866Z,77.10
2023-04-16T08:06:29.592Z,76.55
2023-04-16T08:11:37.093Z,75.93
2023-04-16T08:16:44.617Z,73.82
2023-04-16T08:21:52.238Z,72.87
2023-04-16T08:27:08.034Z,71.35
2023-04-16T08:32:25.420Z,70.64
2023-04-16T08:37:32.911Z,69.42
2023-04-16T08:42:46.950Z,67.81
2023-04-16T08:53:38.196Z,66.33
2023-04-16T08:58:48.479Z,67.10
2023-04-16T09:03:57.355Z,67.56
2023-04-16T09:09:08.947Z,65.49
2023-04-16T09:14:17.021Z,63.55
2023-04-16T09:19:40.410Z,61.82
2023-04-16T09:24:48.298Z,63.67
2023-04-16T09:29:56.057Z,61.98
2023-04-16T09:35:04.921Z,62.01
2023-04-16T09:40:13.981Z,60.59
2023-04-16T09:45:21.337Z,60.29
2023-04-16T09:54:36.852Z,61.60
2023-04-16T09:59:44.152Z,61.07
2023-04-16T10:04:53.234Z,60.96
2023-04-16T10:10:01.420Z,60.39
2023-04-16T10:15:11.244Z,57.63
2023-04-16T10:20:19.382Z,57.36
2023-04-16T10:25:27.719Z,56.75
2023-04-16T10:30:35.608Z,58.42
2023-04-16T10:35:55.001Z,57.37
2023-04-16T10:41:12.806Z,58.12
2023-04-16T10:46:27.070Z,57.03
2023-04-16T10:51:36.203Z,56.53
2023-04-16T10:56:46.083Z,56.44
2023-04-16T11:01:56.598Z,55.39
2023-04-16T11:07:17.742Z,55.39
2023-04-16T11:12:29.296Z,56.23
2023-04-16T11:17:42.109Z,55.91
2023-04-16T11:22:49.791Z,55.22
2023-04-16T11:27:59.494Z,55.46
2023-04-16T11:33:09.964Z,54.76
2023-04-16T11:38:19.844Z,54.01
2023-04-16T11:43:30.471Z,53.72
2023-04-16T11:48:51.652Z,53.41
2023-04-16T11:54:00.499Z,53.74
2023-04-16T11:59:13.363Z,52.88
2023-04-16T12:04:25.195Z,51.75
2023-04-16T12:09:32.979Z,52.01
2023-04-16T12:14:51.219Z,53.23
2023-04-16T12:20:01.827Z,52.13
2023-04-16T12:25:13.049Z,52.22
2023-04-16T12:30:22.674Z,52.59
2023-04-16T12:35:37.342Z,51.95
2023-04-16T12:40:44.963Z,52.54
2023-04-16T12:45:52.753Z,51.69
2023-04-16T12:51:00.561Z,51.25
2023-04-16T12:56:08.325Z,50.60
2023-04-16T13:01:15.835Z,50.54
2023-04-16T13:06:23.655Z,50.20
2023-04-16T13:11:31.445Z,50.17
2023-04-16T13:16:39.084Z,51.17
2023-04-16T13:21:46.991Z,50.59
2023-04-16T13:26:55.995Z,49.53
2023-04-16T13:32:04.051Z,48.88
2023-04-16T13:37:11.454Z,48.99
2023-04-16T13:42:19.552Z,49.10
2023-04-16T13:47:27.247Z,48.98
2023-04-16T13:52:34.823Z,49.66
2023-04-16T13:57:42.614Z,50.31
2023-04-16T14:02:50.125Z,50.23
2023-04-16T14:07:58.379Z,50.25
2023-04-16T14:13:05.992Z,49.43
2023-04-16T14:18:13.366Z,50.00
2023-04-16T14:23:21.094Z,50.70
2023-04-16T14:28:29.226Z,49.14
2023-04-16T14:33:37.284Z,49.27
2023-04-16T14:38:45.097Z,49.79
2023-04-16T14:43:53.116Z,50.68
2023-04-16T14:49:00.745Z,50.72
2023-04-16T14:54:08.655Z,49.59
2023-04-16T14:59:16.720Z,49.33
2023-04-16T15:04:24.418Z,50.21
2023-04-16T15:09:32.608Z,50.12
2023-04-16T15:14:40.439Z,50.65
2023-04-16T15:19:47.891Z,51.12
2023-04-16T15:24:55.823Z,51.47
2023-04-16T15:30:03.826Z,51.14
2023-04-16T15:35:12.519Z,50.70
2023-04-16T15:40:21.410Z,51.21
2023-04-16T15:45:28.923Z,51.69
2023-04-16T15:50:36.643Z,51.79
2023-04-16T15:55:46.161Z,52.90
2023-04-16T16:00:54.770Z,53.45
2023-04-16T16:06:04.950Z,53.46
2023-04-16T16:11:13.617Z,53.95
2023-04-16T16:16:22.147Z,54.08
2023-04-16T16:21:31.154Z,54.58
2023-04-16T16:26:38.748Z,54.84
2023-04-16T16:31:46.649Z,54.81
2023-04-16T16:36:54.266Z,55.23
2023-04-16T16:42:01.906Z,55.34
2023-04-16T16:47:09.773Z,55.44
2023-04-16T16:52:17.800Z,55.81
2023-04-16T16:57:25.891Z,56.25
2023-04-16T17:02:34.448Z,56.74
2023-04-16T17:07:42.812Z,56.99
2023-04-16T17:12:52.096Z,57.50
2023-04-16T17:18:00.536Z,57.77
2023-04-16T17:23:08.028Z,58.17
2023-04-16T17:28:15.507Z,58.65
2023-04-16T17:33:23.326Z,59.04
2023-04-16T17:38:31.205Z,59.40
2023-04-16T17:43:39.272Z,59.52
2023-04-16T17:48:48.240Z,59.83
2023-04-16T17:53:55.928Z,60.16
2023-04-16T17:59:03.826Z,60.53
2023-04-16T18:04:12.275Z,60.64
2023-04-16T18:09:20.401Z,60.82
2023-04-16T18:14:28.336Z,60.77
2023-04-16T18:19:36.280Z,61.06
2023-04-16T18:24:43.793Z,61.21
2023-04-16T18:29:51.760Z,61.41
2023-04-16T18:35:02.010Z,61.25
2023-04-16T18:40:12.562Z,61.53
2023-04-16T18:45:21.733Z,61.68
2023-04-16T18:50:30.298Z,61.90
2023-04-16T18:55:38.207Z,62.18
2023-04-16T19:00:46.669Z,62.55
2023-04-16T19:05:54.980Z,63.58
2023-04-16T19:11:02.383Z,64.09
2023-04-16T19:16:11.868Z,64.78
2023-04-16T19:21:19.876Z,65.20
2023-04-16T19:26:28.352Z,66.17
2023-04-16T19:31:36.545Z,66.93
2023-04-16T19:36:46.221Z,67.73
2023-04-16T19:41:53.405Z,68.79
2023-04-16T19:47:01.089Z,68.99
2023-04-16T19:52:09.432Z,69.77
2023-04-16T19:57:17.450Z,69.74
2023-04-16T20:02:25.369Z,70.22
2023-04-16T20:07:33.500Z,70.76
2023-04-16T20:12:40.893Z,71.63
2023-04-16T20:17:48.553Z,72.14
2023-04-16T20:22:55.936Z,72.46
2023-04-16T20:28:03.323Z,72.45
2023-04-16T20:33:11.546Z,72.77
2023-04-16T20:38:24.033Z,72.80
2023-04-16T20:43:38.942Z,73.26
2023-04-16T20:48:46.357Z,73.74
2023-04-16T20:53:53.984Z,74.71
2023-04-16T20:59:01.499Z,75.82
2023-04-16T21:04:09.371Z,76.54
2023-04-16T21:09:17.328Z,76.99
2023-04-16T21:14:24.566Z,77.67
2023-04-16T21:19:31.941Z,78.11
2023-04-16T21:24:39.578Z,78.53
2023-04-16T21:29:46.797Z,79.00
2023-04-16T21:34:54.282Z,79.05
2023-04-16T21:40:01.800Z,78.13
2023-04-16T21:45:11.997Z,77.06
2023-04-16T21:50:19.965Z,76.34
2023-04-16T21:55:28.047Z,75.97
2023-04-16T22:00:35.852Z,75.95
2023-04-16T22:05:43.118Z,76.23
2023-04-16T22:10:50.357Z,76.68
2023-04-16T22:16:01.552Z,76.34
2023-04-16T22:21:09.064Z,76.07
2023-04-16T22:26:16.437Z,76.22
2023-04-16T22:31:23.572Z,76.41
2023-04-16T22:36:32.379Z,76.80
2023-04-16T22:41:40.109Z,77.29
2023-04-16T22:46:48.122Z,79.03
2023-04-16T22:51:55.726Z,80.20
2023-04-16T22:57:03.661Z,80.76
2023-04-16T23:02:11.040Z,81.03
2023-04-16T23:07:18.366Z,81.43
2023-04-16T23:12:26.121Z,81.60
2023-04-16T23:17:34.263Z,81.33
2023-04-16T23:22:42.775Z,81.38
2023-04-16T23:27:49.966Z,81.50
2023-04-16T23:32:58.376Z,81.36
2023-04-16T23:38:06.175Z,82.10
2023-04-16T23:43:13.623Z,82.12
2023-04-16T23:48:20.788Z,82.47
2023-04-16T23:53:28.490Z,82.67
2023-04-16T23:58:35.850Z,82.97
